createdAt,value
2019-02-12T00:01:50.813Z,59.29
2019-02-12T00:04:20.049Z,59.40
2019-02-12T00:06:49.346Z,59.85
2019-02-12T00:09:18.671Z,60.36
2019-02-12T00:11:47.959Z,60.87
2019-02-12T00:14:17.197Z,61.18
2019-02-12T00:16:46.454Z,61.60
2019-02-12T00:19:15.761Z,61.70
2019-02-12T00:21:45.039Z,61.84
2019-02-12T00:24:14.277Z,61.89
2019-02-12T00:26:43.541Z,61.93
2019-02-12T00:29:12.810Z,61.94
2019-02-12T00:31:42.035Z,61.75
2019-02-12T00:34:11.253Z,61.75
2019-02-12T00:36:40.475Z,61.83
2019-02-12T00:39:09.740Z,62.00
2019-02-12T00:41:39.074Z,62.05
2019-02-12T00:44:08.347Z,62.27
2019-02-12T00:46:37.622Z,62.66
2019-02-12T00:49:06.850Z,62.76
2019-02-12T00:51:36.168Z,63.15
2019-02-12T00:54:05.452Z,63.41
2019-02-12T00:56:34.767Z,63.64
2019-02-12T00:59:03.989Z,63.82
2019-02-12T01:01:33.301Z,64.17
2019-02-12T01:04:02.485Z,64.47
2019-02-12T01:06:31.747Z,64.72
2019-02-12T01:09:01.093Z,64.89
2019-02-12T01:11:30.305Z,64.89
2019-02-12T01:13:59.562Z,65.10
2019-02-12T01:16:28.857Z,65.21
2019-02-12T01:18:58.107Z,65.43
2019-02-12T01:21:27.341Z,65.51
2019-02-12T01:23:56.580Z,65.80
2019-02-12T01:26:25.791Z,65.90
2019-02-12T01:28:55.015Z,65.77
2019-02-12T01:31:24.578Z,65.69
2019-02-12T01:33:53.793Z,65.60
2019-02-12T01:36:23.035Z,65.69
2019-02-12T01:38:52.377Z,65.58
2019-02-12T01:41:21.660Z,65.46
2019-02-12T01:43:50.987Z,65.42
2019-02-12T01:46:20.260Z,65.24
2019-02-12T01:48:49.528Z,65.19
2019-02-12T01:51:18.784Z,64.99
2019-02-12T01:53:48.046Z,65.15
2019-02-12T01:56:17.373Z,65.23
2019-02-12T01:58:46.705Z,65.56
2019-02-12T02:01:15.924Z,66.08
2019-02-12T02:03:45.172Z,66.28
2019-02-12T02:06:14.403Z,66.71
2019-02-12T02:08:43.682Z,67.07
2019-02-12T02:11:12.955Z,67.17
2019-02-12T02:13:42.156Z,67.48
2019-02-12T02:16:11.421Z,67.72
2019-02-12T02:18:40.630Z,68.28
2019-02-12T02:21:09.874Z,68.54
2019-02-12T02:23:39.170Z,68.60
2019-02-12T02:26:08.501Z,68.77
2019-02-12T02:28:37.746Z,69.18
2019-02-12T02:31:07.084Z,69.40
2019-02-12T02:33:36.325Z,69.49
2019-02-12T02:36:05.625Z,69.68
2019-02-12T02:38:34.833Z,69.84
2019-02-12T02:41:04.197Z,70.01
2019-02-12T02:43:33.432Z,70.04
2019-02-12T02:46:02.657Z,70.10
2019-02-12T02:48:31.868Z,70.20
2019-02-12T02:51:01.076Z,70.21
2019-02-12T02:53:30.372Z,70.24
2019-02-12T02:55:59.677Z,70.31
2019-02-12T02:58:28.968Z,70.52
2019-02-12T03:00:58.285Z,71.00
2019-02-12T03:03:27.584Z,71.40
2019-02-12T03:05:56.885Z,71.69
2019-02-12T03:08:26.172Z,72.17
2019-02-12T03:10:55.483Z,73.01
2019-02-12T03:13:24.769Z,73.80
2019-02-12T03:15:54.096Z,74.50
2019-02-12T03:18:23.371Z,74.71
2019-02-12T03:20:52.679Z,75.06
2019-02-12T03:23:21.932Z,75.14
2019-02-12T03:25:51.155Z,75.19
2019-02-12T03:28:20.496Z,75.61
2019-02-12T03:30:49.790Z,75.85
2019-02-12T03:33:19.018Z,76.18
2019-02-12T03:35:48.260Z,76.34
2019-02-12T03:38:17.592Z,76.21
2019-02-12T03:40:46.874Z,76.50
2019-02-12T03:43:16.095Z,76.62
2019-02-12T03:45:45.314Z,76.87
2019-02-12T03:48:14.596Z,77.19
2019-02-12T03:50:43.816Z,77.54
2019-02-12T03:53:13.102Z,77.66
2019-02-12T03:55:42.352Z,77.66
2019-02-12T03:58:11.590Z,77.62
2019-02-12T04:00:40.827Z,77.90
2019-02-12T04:03:10.145Z,77.79
2019-02-12T04:05:40.141Z,77.66
2019-02-12T04:08:09.378Z,77.24
2019-02-12T04:10:38.658Z,77.11
2019-02-12T04:13:07.905Z,77.05
2019-02-12T04:15:37.286Z,77.36
2019-02-12T04:18:06.586Z,77.39
2019-02-12T04:20:35.823Z,77.40
2019-02-12T04:23:05.067Z,77.51
2019-02-12T04:25:34.309Z,77.64
2019-02-12T04:28:03.579Z,77.68
2019-02-12T04:30:32.904Z,77.66
2019-02-12T04:33:02.266Z,77.72
2019-02-12T04:35:31.539Z,78.18
2019-02-12T04:38:00.805Z,78.16
2019-02-12T04:40:30.120Z,78.15
2019-02-12T04:42:59.370Z,78.20
2019-02-12T04:45:28.650Z,78.09
2019-02-12T04:47:58.024Z,78.05
2019-02-12T04:50:27.285Z,78.00
2019-02-12T04:52:56.617Z,77.82
2019-02-12T04:55:25.892Z,77.95
2019-02-12T04:57:55.408Z,78.19
2019-02-12T05:00:24.599Z,78.31
2019-02-12T05:02:53.903Z,78.34
2019-02-12T05:05:23.196Z,78.29
2019-02-12T05:07:55.228Z,78.14
2019-02-12T05:10:25.222Z,78.31
2019-02-12T05:12:54.993Z,78.23
2019-02-12T05:15:24.289Z,77.95
2019-02-12T05:17:53.551Z,77.75
2019-02-12T05:20:22.973Z,77.61
2019-02-12T05:22:52.203Z,77.72
2019-02-12T05:25:21.465Z,77.80
2019-02-12T05:27:50.697Z,77.72
2019-02-12T05:30:19.929Z,77.63
2019-02-12T05:32:49.196Z,77.62
2019-02-12T05:35:18.620Z,77.63
2019-02-12T05:37:48.483Z,77.64
2019-02-12T05:40:17.729Z,77.44
2019-02-12T05:42:47.971Z,77.48
2019-02-12T05:45:17.198Z,77.68
2019-02-12T05:47:46.491Z,77.82
2019-02-12T05:50:15.833Z,77.89
2019-02-12T05:52:53.574Z,78.08
2019-02-12T05:55:14.332Z,78.12
2019-02-12T05:57:43.615Z,78.51
2019-02-12T06:00:14.134Z,78.75
2019-02-12T06:02:43.352Z,78.98
2019-02-12T06:05:16.785Z,79.13
2019-02-12T06:07:46.160Z,79.29
2019-02-12T06:10:15.659Z,79.22
2019-02-12T06:12:44.953Z,79.52
2019-02-12T06:15:14.312Z,79.45
2019-02-12T06:17:43.596Z,79.69
2019-02-12T06:20:12.890Z,79.40
2019-02-12T06:22:42.126Z,79.50
2019-02-12T06:25:11.405Z,80.01
2019-02-12T06:27:40.722Z,80.11
2019-02-12T06:30:10.016Z,79.98
2019-02-12T06:32:39.268Z,80.10
2019-02-12T06:35:08.585Z,80.26
2019-02-12T06:37:37.857Z,80.19
2019-02-12T06:40:07.765Z,80.32
2019-02-12T06:42:37.017Z,80.00
2019-02-12T06:45:07.694Z,80.50
2019-02-12T06:47:36.984Z,80.56
2019-02-12T06:50:07.655Z,80.67
2019-02-12T06:52:37.030Z,80.55
2019-02-12T06:55:07.131Z,80.75
2019-02-12T06:57:36.890Z,80.68
2019-02-12T07:00:06.257Z,81.09
2019-02-12T07:03:14.057Z,80.34
2019-02-12T07:05:59.313Z,79.93
2019-02-12T07:09:02.568Z,80.07
2019-02-12T07:11:43.369Z,80.29
2019-02-12T07:14:25.241Z,80.14
2019-02-12T07:17:18.111Z,79.98
2019-02-12T07:20:02.048Z,79.83
2019-02-12T07:22:58.433Z,79.67
2019-02-12T07:26:19.666Z,79.69
2019-02-12T07:29:18.515Z,79.78
2019-02-12T07:32:19.985Z,79.37
2019-02-12T07:35:49.156Z,78.99
2019-02-12T07:38:34.815Z,78.73
2019-02-12T07:41:20.190Z,78.05
2019-02-12T07:44:08.151Z,77.33
2019-02-12T07:47:24.335Z,76.87
2019-02-12T07:50:18.260Z,76.00
2019-02-12T07:53:31.327Z,75.95
2019-02-12T07:56:38.225Z,76.20
2019-02-12T07:59:39.191Z,76.12
2019-02-12T08:03:08.583Z,76.14
2019-02-12T08:06:19.459Z,75.94
2019-02-12T08:09:35.462Z,75.78
2019-02-12T08:12:30.421Z,75.47
2019-02-12T08:15:11.368Z,75.57
2019-02-12T08:17:51.959Z,75.72
2019-02-12T08:20:54.147Z,75.09
2019-02-12T08:23:56.120Z,76.04
2019-02-12T08:26:57.257Z,76.98
2019-02-12T08:29:44.790Z,77.10
2019-02-12T08:32:52.468Z,77.34
2019-02-12T08:35:46.829Z,77.69
2019-02-12T08:38:47.207Z,78.04
2019-02-12T08:42:04.164Z,78.02
2019-02-12T08:44:55.962Z,77.88
2019-02-12T08:47:38.650Z,77.26
2019-02-12T08:50:42.239Z,76.04
2019-02-12T08:53:52.273Z,75.61
2019-02-12T08:56:45.441Z,75.30
2019-02-12T08:59:59.947Z,74.44
2019-02-12T09:02:57.517Z,74.63
2019-02-12T09:06:01.263Z,74.45
2019-02-12T09:09:00.377Z,74.38
2019-02-12T09:12:08.616Z,73.32
2019-02-12T09:14:58.678Z,72.72
2019-02-12T09:18:09.356Z,72.51
2019-02-12T09:21:19.465Z,72.00
2019-02-12T09:24:17.995Z,71.72
2019-02-12T09:27:38.489Z,72.07
2019-02-12T09:30:26.677Z,71.44
2019-02-12T09:33:42.499Z,71.02
2019-02-12T09:37:02.607Z,71.67
2019-02-12T09:40:03.195Z,71.40
2019-02-12T09:43:13.535Z,71.69
2019-02-12T09:46:20.405Z,71.16
2019-02-12T09:49:04.951Z,70.37
2019-02-12T09:52:21.689Z,70.66
2019-02-12T09:55:16.480Z,71.25
2019-02-12T09:58:23.455Z,71.00
2019-02-12T10:01:24.997Z,70.99
2019-02-12T10:04:35.287Z,70.65
2019-02-12T10:07:27.079Z,70.31
2019-02-12T10:10:33.487Z,70.57
2019-02-12T10:13:17.953Z,70.22
2019-02-12T10:16:20.291Z,69.91
2019-02-12T10:19:31.369Z,70.11
2019-02-12T10:22:37.068Z,70.66
2019-02-12T10:25:25.382Z,70.84
2019-02-12T10:28:31.865Z,70.24
2019-02-12T10:31:28.329Z,70.03
2019-02-12T10:33:57.601Z,69.65
2019-02-12T10:36:26.871Z,70.52
2019-02-12T10:38:56.143Z,69.92
2019-02-12T10:41:25.357Z,68.86
2019-02-12T10:43:54.627Z,70.32
2019-02-12T10:46:23.919Z,69.35
2019-02-12T10:48:53.101Z,68.66
2019-02-12T10:51:22.492Z,68.78
2019-02-12T10:53:51.700Z,68.42
2019-02-12T10:56:20.999Z,66.47
2019-02-12T10:58:50.293Z,66.78
2019-02-12T11:01:19.695Z,67.85
2019-02-12T11:03:48.977Z,66.93
2019-02-12T11:06:18.303Z,65.99
2019-02-12T11:08:47.708Z,66.37
2019-02-12T11:11:17.051Z,64.89
2019-02-12T11:13:46.398Z,63.87
2019-02-12T11:16:15.653Z,64.50
2019-02-12T11:18:45.065Z,65.69
2019-02-12T11:21:14.346Z,64.13
2019-02-12T11:23:43.570Z,62.92
2019-02-12T11:26:12.911Z,63.20
2019-02-12T11:28:42.211Z,62.54
2019-02-12T11:31:11.555Z,63.36
2019-02-12T11:33:40.827Z,64.59
2019-02-12T11:36:10.129Z,65.15
2019-02-12T11:38:39.368Z,63.53
2019-02-12T11:41:08.653Z,59.92
2019-02-12T11:43:37.905Z,58.91
2019-02-12T11:46:07.219Z,57.04
2019-02-12T11:48:36.425Z,55.27
2019-02-12T11:51:05.725Z,54.60
2019-02-12T11:53:35.017Z,54.60
2019-02-12T11:56:04.265Z,53.81
2019-02-12T11:58:33.483Z,52.41
2019-02-12T12:01:03.794Z,52.45
2019-02-12T12:03:33.077Z,51.20
2019-02-12T12:06:02.321Z,51.23
2019-02-12T12:08:31.663Z,51.29
2019-02-12T12:11:00.944Z,50.48
2019-02-12T12:13:30.289Z,50.26
2019-02-12T12:15:59.551Z,48.41
2019-02-12T12:18:28.783Z,50.10
2019-02-12T12:20:58.045Z,51.13
2019-02-12T12:23:27.405Z,51.04
2019-02-12T12:25:56.683Z,51.02
2019-02-12T12:28:25.952Z,51.58
2019-02-12T12:30:55.275Z,53.05
2019-02-12T12:33:24.643Z,53.05
2019-02-12T12:35:53.923Z,53.99
2019-02-12T12:38:23.133Z,55.74
2019-02-12T12:40:52.377Z,56.17
2019-02-12T12:43:21.673Z,56.14
2019-02-12T12:45:50.943Z,54.97
2019-02-12T12:48:20.219Z,49.42
2019-02-12T12:50:49.453Z,49.42
2019-02-12T12:53:18.784Z,48.99
2019-02-12T12:55:47.999Z,47.71
2019-02-12T12:58:17.313Z,46.65
2019-02-12T13:00:46.527Z,45.18
2019-02-12T13:03:15.848Z,45.49
2019-02-12T13:05:45.169Z,43.23
2019-02-12T13:08:14.485Z,45.63
2019-02-12T13:10:44.656Z,48.43
2019-02-12T13:13:12.997Z,48.84
2019-02-12T13:15:42.213Z,50.29
2019-02-12T13:18:11.466Z,49.87
2019-02-12T13:20:40.792Z,51.71
2019-02-12T13:23:10.031Z,52.49
2019-02-12T13:25:39.339Z,54.10
2019-02-12T13:28:08.666Z,55.23
2019-02-12T13:30:37.967Z,55.23
2019-02-12T13:33:07.251Z,55.54
2019-02-12T13:35:36.569Z,56.04
2019-02-12T13:38:05.897Z,56.74
2019-02-12T13:40:35.219Z,57.52
2019-02-12T13:43:04.474Z,58.68
2019-02-12T13:45:33.751Z,59.20
2019-02-12T13:48:03.142Z,60.04
2019-02-12T13:50:32.375Z,60.92
2019-02-12T13:53:01.615Z,61.31
2019-02-12T13:55:30.858Z,61.47
2019-02-12T13:58:00.141Z,62.35
2019-02-12T14:00:29.428Z,62.70
2019-02-12T14:02:58.705Z,63.61
2019-02-12T14:05:28.012Z,64.04
2019-02-12T14:07:57.301Z,64.71
2019-02-12T14:10:26.577Z,65.00
2019-02-12T14:12:55.875Z,65.28
2019-02-12T14:15:25.121Z,65.02
2019-02-12T14:17:56.047Z,65.64
2019-02-12T14:20:23.671Z,65.56
2019-02-12T14:22:52.981Z,64.91
2019-02-12T14:25:25.593Z,64.30
2019-02-12T14:27:51.601Z,64.28
2019-02-12T14:30:20.990Z,64.18
2019-02-12T14:32:50.419Z,63.42
2019-02-12T14:35:19.683Z,63.18
2019-02-12T14:37:48.924Z,62.79
2019-02-12T14:40:18.142Z,62.18
2019-02-12T14:42:47.403Z,61.28
2019-02-12T14:45:16.665Z,60.71
2019-02-12T14:47:46.011Z,60.18
2019-02-12T14:50:15.245Z,60.06
2019-02-12T14:52:44.521Z,60.30
2019-02-12T14:55:13.896Z,60.44
2019-02-12T14:57:43.181Z,60.71
2019-02-12T15:00:12.866Z,60.89
2019-02-12T15:02:42.218Z,61.00
2019-02-12T15:05:11.503Z,61.20
2019-02-12T15:07:40.809Z,61.81
2019-02-12T15:10:10.823Z,61.62
2019-02-12T15:12:40.123Z,61.85
2019-02-12T15:15:09.645Z,61.98
2019-02-12T15:17:38.932Z,62.05
2019-02-12T15:20:08.526Z,61.96
2019-02-12T15:22:37.805Z,62.25
2019-02-12T15:25:07.376Z,62.74
2019-02-12T15:27:36.619Z,63.36
2019-02-12T15:30:10.349Z,63.92
2019-02-12T15:32:39.645Z,64.59
2019-02-12T15:35:09.708Z,64.94
2019-02-12T15:37:41.852Z,65.79
2019-02-12T15:40:12.479Z,65.98
2019-02-12T15:42:41.773Z,66.67
2019-02-12T15:45:13.118Z,66.85
2019-02-12T15:47:42.346Z,66.91
2019-02-12T15:50:11.629Z,67.22
2019-02-12T15:52:40.939Z,67.41
2019-02-12T15:55:11.292Z,67.43
2019-02-12T15:57:43.108Z,67.77
2019-02-12T16:00:15.751Z,68.26
2019-02-12T16:02:44.162Z,68.05
2019-02-12T16:05:13.563Z,68.23
2019-02-12T16:07:44.666Z,68.15
2019-02-12T16:10:14.900Z,68.35
2019-02-12T16:12:43.124Z,68.46
2019-02-12T16:15:14.271Z,68.83
2019-02-12T16:17:43.555Z,68.89
2019-02-12T16:20:12.864Z,69.03
2019-02-12T16:22:42.159Z,69.54
2019-02-12T16:25:11.434Z,69.71
2019-02-12T16:27:40.759Z,69.73
2019-02-12T16:30:12.638Z,69.98
2019-02-12T16:32:41.873Z,69.96
2019-02-12T16:35:12.355Z,70.42
2019-02-12T16:37:41.650Z,70.75
2019-02-12T16:40:11.662Z,70.91
2019-02-12T16:42:40.931Z,71.04
2019-02-12T16:45:13.141Z,70.94
2019-02-12T16:47:42.474Z,71.07
2019-02-12T16:50:11.720Z,71.25
2019-02-12T16:52:40.971Z,71.34
2019-02-12T16:55:10.324Z,71.22
2019-02-12T16:57:39.637Z,71.28
2019-02-12T17:00:11.780Z,71.30
2019-02-12T17:02:41.024Z,71.66
2019-02-12T17:05:11.313Z,71.39
2019-02-12T17:07:40.558Z,71.71
2019-02-12T17:10:09.901Z,72.14
2019-02-12T17:12:39.144Z,72.30
2019-02-12T17:15:09.217Z,72.77
2019-02-12T17:17:38.571Z,72.58
2019-02-12T17:20:10.709Z,73.21
2019-02-12T17:22:39.925Z,73.23
2019-02-12T17:25:10.015Z,73.26
2019-02-12T17:27:44.726Z,73.57
2019-02-12T17:30:14.054Z,73.73
2019-02-12T17:32:43.395Z,74.01
2019-02-12T17:35:12.671Z,74.29
2019-02-12T17:37:41.912Z,74.67
2019-02-12T17:40:11.759Z,74.65
2019-02-12T17:42:40.992Z,74.94
2019-02-12T17:45:11.806Z,75.27
2019-02-12T17:47:41.065Z,75.76
2019-02-12T17:50:11.017Z,76.05
2019-02-12T17:52:40.364Z,75.89
2019-02-12T17:55:09.650Z,76.23
2019-02-12T17:57:38.932Z,76.33
2019-02-12T18:00:12.966Z,76.63
2019-02-12T18:02:42.269Z,76.22
2019-02-12T18:05:11.562Z,76.75
2019-02-12T18:07:40.865Z,76.70
2019-02-12T18:10:10.157Z,76.88
2019-02-12T18:12:39.429Z,76.86
2019-02-12T18:15:09.472Z,76.89
2019-02-12T18:17:38.781Z,76.63
2019-02-12T18:20:08.584Z,76.48
2019-02-12T18:22:37.861Z,76.66
2019-02-12T18:25:08.069Z,76.93
2019-02-12T18:27:37.324Z,76.89
2019-02-12T18:30:08.888Z,76.83
2019-02-12T18:32:38.174Z,76.64
2019-02-12T18:35:07.438Z,76.81
2019-02-12T18:37:36.775Z,77.22
2019-02-12T18:40:06.587Z,77.27
2019-02-12T18:42:35.882Z,77.37
2019-02-12T18:45:05.493Z,77.62
2019-02-12T18:47:34.776Z,77.90
2019-02-12T18:50:04.909Z,78.11
2019-02-12T18:52:34.126Z,78.22
2019-02-12T18:55:03.408Z,78.27
2019-02-12T18:57:32.662Z,78.37
2019-02-12T19:00:01.900Z,78.45
2019-02-12T19:02:31.222Z,78.83
2019-02-12T19:05:00.489Z,78.37
2019-02-12T19:07:29.714Z,78.51
2019-02-12T19:09:59.001Z,78.41
2019-02-12T19:12:28.445Z,78.39
2019-02-12T19:14:57.699Z,78.61
2019-02-12T19:17:27.103Z,78.63
2019-02-12T19:19:56.357Z,79.01
2019-02-12T19:22:25.612Z,78.85
2019-02-12T19:24:54.929Z,78.88
2019-02-12T19:27:24.337Z,78.33
2019-02-12T19:29:53.639Z,78.27
2019-02-12T19:32:22.874Z,78.17
2019-02-12T19:34:52.147Z,78.32
2019-02-12T19:37:21.422Z,78.10
2019-02-12T19:39:50.694Z,78.04
2019-02-12T19:42:19.906Z,78.05
2019-02-12T19:44:49.157Z,77.99
2019-02-12T19:47:18.425Z,78.18
2019-02-12T19:49:47.655Z,78.10
2019-02-12T19:52:16.961Z,77.94
2019-02-12T19:54:46.205Z,77.86
2019-02-12T19:57:15.478Z,77.83
2019-02-12T19:59:44.825Z,77.99
2019-02-12T20:02:14.157Z,77.97
2019-02-12T20:04:43.405Z,77.72
2019-02-12T20:07:12.680Z,77.59
2019-02-12T20:09:42.019Z,77.64
2019-02-12T20:12:11.332Z,77.54
2019-02-12T20:14:40.639Z,77.25
2019-02-12T20:17:09.867Z,77.12
2019-02-12T20:19:39.137Z,76.88
2019-02-12T20:22:08.730Z,76.87
2019-02-12T20:24:38.029Z,76.58
2019-02-12T20:27:07.333Z,76.34
2019-02-12T20:29:36.696Z,76.34
2019-02-12T20:32:05.983Z,76.26
2019-02-12T20:34:35.349Z,75.82
2019-02-12T20:37:07.312Z,75.64
2019-02-12T20:39:36.540Z,75.45
2019-02-12T20:42:05.823Z,75.43
2019-02-12T20:44:35.195Z,75.27
2019-02-12T20:47:04.609Z,75.08
2019-02-12T20:49:33.871Z,74.88
2019-02-12T20:52:03.147Z,74.80
2019-02-12T20:54:32.424Z,74.91
2019-02-12T20:57:01.726Z,74.79
2019-02-12T20:59:30.972Z,74.61
2019-02-12T21:02:00.242Z,74.61
2019-02-12T21:04:29.473Z,74.68
2019-02-12T21:06:58.701Z,74.39
2019-02-12T21:09:27.995Z,74.42
2019-02-12T21:11:57.263Z,74.72
2019-02-12T21:14:26.532Z,74.64
2019-02-12T21:16:55.801Z,74.61
2019-02-12T21:19:25.158Z,74.50
2019-02-12T21:21:54.423Z,74.31
2019-02-12T21:24:23.735Z,74.41
2019-02-12T21:26:52.995Z,74.59
2019-02-12T21:29:22.365Z,74.65
2019-02-12T21:31:51.611Z,74.70
2019-02-12T21:34:20.857Z,74.65
2019-02-12T21:36:50.261Z,74.57
2019-02-12T21:39:21.643Z,74.47
2019-02-12T21:41:50.893Z,74.44
2019-02-12T21:44:20.163Z,74.46
2019-02-12T21:46:49.429Z,74.64
2019-02-12T21:49:18.683Z,74.66
2019-02-12T21:51:47.991Z,74.57
2019-02-12T21:54:17.283Z,74.44
2019-02-12T21:56:46.560Z,74.50
2019-02-12T21:59:15.877Z,74.42
2019-02-12T22:01:45.174Z,74.26
2019-02-12T22:04:14.430Z,74.38
2019-02-12T22:06:43.663Z,74.34
2019-02-12T22:09:13.007Z,74.45
2019-02-12T22:11:42.241Z,74.30
2019-02-12T22:14:11.531Z,74.30
2019-02-12T22:16:40.849Z,74.81
2019-02-12T22:19:10.108Z,74.51
2019-02-12T22:21:39.380Z,74.37
2019-02-12T22:24:08.735Z,74.47
2019-02-12T22:26:38.027Z,74.56
2019-02-12T22:29:07.447Z,74.71
2019-02-12T22:31:36.954Z,74.70
2019-02-12T22:34:06.439Z,74.56
2019-02-12T22:36:36.112Z,74.58
2019-02-12T22:39:06.835Z,74.51
2019-02-12T22:41:36.221Z,74.45
2019-02-12T22:44:06.021Z,74.50
2019-02-12T22:46:35.292Z,74.41
2019-02-12T22:49:04.823Z,74.37
2019-02-12T22:51:34.262Z,74.45
2019-02-12T22:54:03.631Z,74.22
2019-02-12T22:56:33.015Z,74.08
2019-02-12T22:59:02.548Z,74.05
2019-02-12T23:01:37.453Z,73.97
2019-02-12T23:04:08.582Z,74.01
2019-02-12T23:06:37.857Z,73.76
2019-02-12T23:09:16.122Z,73.76
2019-02-12T23:11:45.606Z,73.79
2019-02-12T23:14:14.824Z,73.60
2019-02-12T23:16:44.723Z,73.25
2019-02-12T23:19:14.233Z,73.24
2019-02-12T23:21:43.479Z,73.21
2019-02-12T23:24:13.199Z,73.27
2019-02-12T23:26:47.889Z,73.18
2019-02-12T23:29:17.740Z,73.17
2019-02-12T23:31:47.896Z,73.07
2019-02-12T23:34:17.357Z,72.96
2019-02-12T23:36:50.021Z,73.13
2019-02-12T23:39:19.553Z,73.26
2019-02-12T23:41:49.612Z,73.18
2019-02-12T23:44:21.733Z,73.20
2019-02-12T23:46:51.419Z,73.25
2019-02-12T23:49:20.879Z,73.02
2019-02-12T23:51:50.195Z,73.14
2019-02-12T23:54:19.492Z,73.03
2019-02-12T23:56:48.901Z,72.83
2019-02-12T23:59:18.394Z,72.73
